createdAt,value
2023-02-14T00:01:32.774Z,2.66
2023-02-14T00:04:01.591Z,2.60
2023-02-14T00:06:35.197Z,2.57
2023-02-14T00:09:03.217Z,2.54
2023-02-14T00:11:31.551Z,2.55
2023-02-14T00:14:18.954Z,2.61
2023-02-14T00:16:47.011Z,2.52
2023-02-14T00:19:17.161Z,2.48
2023-02-14T00:21:46.588Z,2.37
2023-02-14T00:24:18.391Z,2.28
2023-02-14T00:26:46.468Z,2.17
2023-02-14T00:29:28.082Z,2.15
2023-02-14T00:31:56.542Z,2.07
2023-02-14T00:34:25.613Z,2.11
2023-02-14T00:36:54.142Z,2.00
2023-02-14T00:39:21.988Z,1.88
2023-02-14T00:41:49.819Z,1.82
2023-02-14T00:44:18.112Z,1.87
2023-02-14T00:46:46.023Z,1.90
2023-02-14T00:49:13.953Z,1.84
2023-02-14T00:51:41.972Z,1.83
2023-02-14T00:54:09.873Z,1.87
2023-02-14T00:56:37.757Z,1.85
2023-02-14T00:59:05.642Z,1.85
2023-02-14T01:01:33.537Z,1.90
2023-02-14T01:04:01.483Z,2.02
2023-02-14T01:06:29.472Z,1.95
2023-02-14T01:08:57.975Z,1.81
2023-02-14T01:11:28.697Z,1.82
2023-02-14T01:13:59.436Z,1.77
2023-02-14T01:16:30.198Z,1.67
2023-02-14T01:19:00.925Z,1.65
2023-02-14T01:21:32.798Z,1.60
2023-02-14T01:24:05.853Z,1.61
2023-02-14T01:26:35.190Z,1.54
2023-02-14T01:29:05.867Z,1.51
2023-02-14T01:31:36.590Z,1.46
2023-02-14T01:34:04.910Z,1.50
2023-02-14T01:36:39.418Z,1.48
2023-02-14T01:39:13.910Z,1.46
2023-02-14T01:41:45.495Z,1.40
2023-02-14T01:44:16.857Z,1.36
2023-02-14T01:46:46.566Z,1.42
2023-02-14T01:49:25.723Z,1.45
2023-02-14T01:52:04.307Z,1.46
2023-02-14T01:54:38.422Z,1.46
2023-02-14T01:57:13.597Z,1.31
2023-02-14T01:59:51.083Z,1.19
2023-02-14T02:02:23.705Z,1.20
2023-02-14T02:04:55.989Z,1.08
2023-02-14T02:07:29.351Z,0.97
2023-02-14T02:10:03.900Z,1.00
2023-02-14T02:12:35.644Z,0.89
2023-02-14T02:15:05.884Z,0.86
2023-02-14T02:17:46.367Z,0.77
2023-02-14T02:21:06.680Z,0.72
2023-02-14T02:24:02.882Z,0.70
2023-02-14T02:27:53.142Z,0.71
2023-02-14T02:30:34.840Z,0.79
2023-02-14T02:33:20.797Z,0.81
2023-02-14T02:36:28.704Z,0.76
2023-02-14T02:39:31.036Z,0.85
2023-02-14T02:42:17.912Z,0.85
2023-02-14T02:45:13.549Z,0.91
2023-02-14T02:47:54.125Z,0.86
2023-02-14T02:51:08.158Z,0.74
2023-02-14T02:53:42.676Z,0.72
2023-02-14T02:56:37.589Z,0.74
2023-02-14T02:59:18.944Z,0.81
2023-02-14T03:01:58.839Z,0.90
2023-02-14T03:04:47.092Z,0.88
2023-02-14T03:07:33.853Z,0.93
2023-02-14T03:10:23.905Z,0.97
2023-02-14T03:13:28.290Z,1.06
2023-02-14T03:16:34.690Z,0.99
2023-02-14T03:20:11.467Z,1.03
2023-02-14T03:23:06.924Z,1.12
2023-02-14T03:26:02.469Z,1.20
2023-02-14T03:28:44.116Z,1.10
2023-02-14T03:31:56.949Z,1.15
2023-02-14T03:34:43.537Z,1.22
2023-02-14T03:37:36.409Z,1.14
2023-02-14T03:40:28.057Z,0.96
2023-02-14T03:43:06.335Z,0.93
2023-02-14T03:45:44.363Z,0.91
2023-02-14T03:48:16.634Z,0.83
2023-02-14T03:50:47.853Z,0.92
2023-02-14T03:53:21.687Z,0.93
2023-02-14T03:56:02.376Z,0.89
2023-02-14T03:58:40.065Z,0.81
2023-02-14T04:01:24.765Z,0.87
2023-02-14T04:03:57.065Z,0.99
2023-02-14T04:06:25.072Z,1.10
2023-02-14T04:08:53.076Z,1.21
2023-02-14T04:11:23.427Z,1.33
2023-02-14T04:13:52.260Z,1.28
2023-02-14T04:16:20.105Z,1.20
2023-02-14T04:19:06.529Z,1.21
2023-02-14T04:21:34.351Z,1.15
2023-02-14T04:24:02.365Z,1.06
2023-02-14T04:26:30.768Z,1.06
2023-02-14T04:28:58.605Z,1.00
2023-02-14T04:31:26.597Z,0.95
2023-02-14T04:33:54.514Z,1.00
2023-02-14T04:36:22.309Z,1.06
2023-02-14T04:38:50.084Z,1.06
2023-02-14T04:41:17.910Z,1.05
2023-02-14T04:43:45.741Z,1.13
2023-02-14T04:46:13.704Z,1.28
2023-02-14T04:48:41.592Z,1.34
2023-02-14T04:51:09.436Z,1.37
2023-02-14T04:53:40.249Z,1.38
2023-02-14T04:56:08.380Z,1.32
2023-02-14T04:58:36.207Z,1.22
2023-02-14T05:01:04.074Z,1.18
2023-02-14T05:03:31.924Z,1.09
2023-02-14T05:05:59.877Z,1.07
2023-02-14T05:08:27.664Z,1.04
2023-02-14T05:10:55.703Z,1.03
2023-02-14T05:13:23.583Z,1.01
2023-02-14T05:15:51.529Z,0.99
2023-02-14T05:18:19.357Z,0.99
2023-02-14T05:20:52.479Z,1.02
2023-02-14T05:23:22.055Z,1.06
2023-02-14T05:25:52.049Z,1.07
2023-02-14T05:28:20.429Z,1.13
2023-02-14T05:30:53.004Z,1.14
2023-02-14T05:33:20.823Z,1.14
2023-02-14T05:35:48.997Z,1.11
2023-02-14T05:38:17.540Z,1.12
2023-02-14T05:40:45.979Z,1.10
2023-02-14T05:43:14.045Z,1.20
2023-02-14T05:45:41.883Z,1.28
2023-02-14T05:48:09.797Z,1.24
2023-02-14T05:50:37.980Z,1.20
2023-02-14T05:53:05.817Z,1.25
2023-02-14T05:55:33.621Z,1.31
2023-02-14T05:58:01.634Z,1.39
2023-02-14T06:00:29.533Z,1.40
2023-02-14T06:02:57.349Z,1.45
2023-02-14T06:05:25.292Z,1.45
2023-02-14T06:07:53.424Z,1.35
2023-02-14T06:10:24.485Z,1.32
2023-02-14T06:12:54.024Z,1.42
2023-02-14T06:15:22.227Z,1.48
2023-02-14T06:17:57.717Z,1.56
2023-02-14T06:20:25.656Z,1.63
2023-02-14T06:22:54.881Z,1.73
2023-02-14T06:25:24.790Z,1.80
2023-02-14T06:27:57.439Z,1.79
2023-02-14T06:30:26.756Z,1.95
2023-02-14T06:32:55.338Z,2.16
2023-02-14T06:35:23.276Z,2.19
2023-02-14T06:37:51.278Z,2.21
2023-02-14T06:40:19.763Z,2.19
2023-02-14T06:42:47.690Z,2.14
2023-02-14T06:45:15.993Z,2.07
2023-02-14T06:47:45.461Z,2.09
2023-02-14T06:50:13.510Z,2.27
2023-02-14T06:52:42.768Z,2.42
2023-02-14T06:55:13.178Z,2.50
2023-02-14T06:57:41.394Z,2.44
2023-02-14T07:00:10.289Z,2.37
2023-02-14T07:02:38.389Z,2.29
2023-02-14T07:05:06.483Z,2.25
2023-02-14T07:07:34.383Z,2.28
2023-02-14T07:10:02.426Z,2.26
2023-02-14T07:12:30.287Z,2.22
2023-02-14T07:15:00.793Z,2.21
2023-02-14T07:17:28.609Z,2.35
2023-02-14T07:19:56.427Z,2.35
2023-02-14T07:22:24.754Z,2.34
2023-02-14T07:24:52.762Z,2.39
2023-02-14T07:27:20.676Z,2.50
2023-02-14T07:29:48.556Z,2.65
2023-02-14T07:32:16.792Z,2.69
2023-02-14T07:34:44.927Z,2.69
2023-02-14T07:37:12.748Z,2.63
2023-02-14T07:39:40.602Z,2.61
2023-02-14T07:42:08.758Z,2.65
2023-02-14T07:44:39.022Z,2.67
2023-02-14T07:47:08.585Z,2.72
2023-02-14T07:49:36.999Z,2.75
2023-02-14T07:52:05.466Z,2.82
2023-02-14T07:54:33.422Z,2.90
2023-02-14T07:57:01.273Z,2.96
2023-02-14T07:59:29.155Z,3.00
2023-02-14T08:01:57.273Z,3.02
2023-02-14T08:04:26.126Z,3.14
2023-02-14T08:06:54.757Z,3.29
2023-02-14T08:09:27.938Z,3.31
2023-02-14T08:12:16.805Z,3.28
2023-02-14T08:14:44.890Z,3.32
2023-02-14T08:17:13.883Z,3.41
2023-02-14T08:19:42.165Z,3.49
2023-02-14T08:22:10.001Z,3.53
2023-02-14T08:24:37.813Z,3.53
2023-02-14T08:27:05.737Z,3.63
2023-02-14T08:29:33.554Z,3.69
2023-02-14T08:32:01.464Z,3.67
2023-02-14T08:34:29.494Z,3.77
2023-02-14T08:36:57.281Z,3.97
2023-02-14T08:39:26.097Z,3.99
2023-02-14T08:41:54.068Z,3.95
2023-02-14T08:44:22.223Z,3.92
2023-02-14T08:46:50.201Z,3.93
2023-02-14T08:49:18.045Z,4.00
2023-02-14T08:51:46.024Z,4.13
2023-02-14T08:54:14.383Z,4.25
2023-02-14T08:56:42.442Z,4.27
2023-02-14T08:59:10.650Z,4.28
2023-02-14T09:01:38.524Z,4.24
2023-02-14T09:04:06.446Z,4.28
2023-02-14T09:06:39.239Z,4.38
2023-02-14T09:09:07.586Z,4.54
2023-02-14T09:11:35.650Z,4.64
2023-02-14T09:14:03.727Z,4.64
2023-02-14T09:16:31.635Z,4.75
2023-02-14T09:18:59.756Z,4.84
2023-02-14T09:21:29.009Z,4.93
2023-02-14T09:23:57.047Z,5.04
2023-02-14T09:26:24.908Z,5.09
2023-02-14T09:28:52.790Z,5.13
2023-02-14T09:31:24.502Z,5.22
2023-02-14T09:33:52.870Z,5.34
2023-02-14T09:36:39.368Z,5.40
2023-02-14T09:39:07.251Z,5.54
2023-02-14T09:41:53.599Z,5.66
2023-02-14T09:44:39.406Z,5.79
2023-02-14T09:47:40.959Z,5.91
2023-02-14T09:50:26.160Z,6.07
2023-02-14T09:53:01.723Z,6.14
2023-02-14T09:55:44.118Z,6.21
2023-02-14T09:58:53.310Z,6.29
2023-02-14T10:02:09.646Z,6.38
2023-02-14T10:05:01.724Z,6.49
2023-02-14T10:08:17.728Z,6.61
2023-02-14T10:11:04.210Z,6.70
2023-02-14T10:13:56.445Z,6.75
2023-02-14T10:16:33.501Z,6.79
2023-02-14T10:19:25.341Z,6.83
2023-02-14T10:22:07.158Z,6.93
2023-02-14T10:24:57.437Z,7.00
2023-02-14T10:27:43.870Z,7.09
2023-02-14T10:30:21.752Z,7.22
2023-02-14T10:33:05.071Z,7.26
2023-02-14T10:35:49.387Z,7.31
2023-02-14T10:38:37.595Z,7.36
2023-02-14T10:41:57.976Z,7.39
2023-02-14T10:44:40.307Z,7.50
2023-02-14T10:47:40.440Z,7.59
2023-02-14T10:50:48.669Z,7.69
2023-02-14T10:53:25.876Z,7.74
2023-02-14T10:56:05.715Z,7.77
2023-02-14T10:58:40.067Z,7.78
2023-02-14T11:01:17.394Z,7.79
2023-02-14T11:04:03.842Z,7.91
2023-02-14T11:06:32.047Z,7.93
2023-02-14T11:09:00.136Z,7.97
2023-02-14T11:11:49.028Z,7.97
2023-02-14T11:14:33.699Z,8.05
2023-02-14T11:17:31.374Z,8.15
2023-02-14T11:20:30.423Z,8.16
2023-02-14T11:22:58.709Z,8.17
2023-02-14T11:25:30.592Z,8.19
2023-02-14T11:28:07.710Z,8.26
2023-02-14T11:30:42.970Z,8.34
2023-02-14T11:33:38.149Z,8.40
2023-02-14T11:36:14.572Z,8.55
2023-02-14T11:38:45.761Z,8.70
2023-02-14T11:41:16.298Z,8.77
2023-02-14T11:43:45.880Z,8.77
2023-02-14T11:46:28.096Z,8.83
2023-02-14T11:49:01.526Z,8.98
2023-02-14T11:51:37.696Z,9.04
2023-02-14T11:54:06.645Z,9.04
2023-02-14T11:56:54.038Z,9.08
2023-02-14T11:59:33.356Z,9.10
2023-02-14T12:02:16.896Z,9.15
2023-02-14T12:04:47.302Z,9.17
2023-02-14T12:07:39.570Z,9.23
2023-02-14T12:10:15.609Z,9.37
2023-02-14T12:12:50.604Z,9.38
2023-02-14T12:15:49.227Z,9.41
2023-02-14T12:18:40.373Z,9.44
2023-02-14T12:21:40.553Z,9.42
2023-02-14T12:24:23.792Z,9.47
2023-02-14T12:27:23.294Z,9.50
2023-02-14T12:29:58.899Z,9.62
2023-02-14T12:32:30.414Z,9.76
2023-02-14T12:35:16.445Z,9.81
2023-02-14T12:38:14.856Z,9.89
2023-02-14T12:41:02.292Z,9.92
2023-02-14T12:43:50.845Z,9.97
2023-02-14T12:46:49.330Z,9.99
2023-02-14T12:49:52.504Z,10.03
2023-02-14T12:52:47.458Z,10.14
2023-02-14T12:55:42.232Z,10.26
2023-02-14T12:58:50.716Z,10.30
2023-02-14T13:01:52.508Z,10.38
2023-02-14T13:04:57.340Z,10.37
2023-02-14T13:07:39.101Z,10.37
2023-02-14T13:10:40.968Z,10.38
2023-02-14T13:13:32.497Z,10.35
2023-02-14T13:16:12.290Z,10.37
2023-02-14T13:19:12.450Z,10.31
2023-02-14T13:21:41.868Z,10.43
2023-02-14T13:24:28.581Z,10.46
2023-02-14T13:27:01.770Z,10.35
2023-02-14T13:29:44.093Z,10.44
2023-02-14T13:32:17.202Z,10.55
2023-02-14T13:34:48.300Z,10.55
2023-02-14T13:37:22.646Z,10.48
2023-02-14T13:39:53.572Z,10.35
2023-02-14T13:42:51.127Z,10.29
2023-02-14T13:45:37.798Z,10.23
2023-02-14T13:48:16.222Z,10.16
2023-02-14T13:51:16.471Z,10.08
2023-02-14T13:53:48.411Z,10.03
2023-02-14T13:56:16.328Z,9.91
2023-02-14T13:58:54.382Z,9.83
2023-02-14T14:01:31.547Z,9.82
2023-02-14T14:04:28.547Z,9.82
2023-02-14T14:07:05.353Z,9.88
2023-02-14T14:09:42.652Z,9.91
2023-02-14T14:12:28.928Z,9.93
2023-02-14T14:15:06.200Z,9.99
2023-02-14T14:17:38.426Z,10.08
2023-02-14T14:20:21.281Z,10.14
2023-02-14T14:22:51.636Z,10.15
2023-02-14T14:25:37.336Z,10.14
2023-02-14T14:28:18.336Z,10.17
2023-02-14T14:30:47.387Z,10.16
2023-02-14T14:33:29.024Z,10.10
2023-02-14T14:36:10.259Z,10.13
2023-02-14T14:38:52.451Z,10.09
2023-02-14T14:41:29.269Z,10.11
2023-02-14T14:43:59.795Z,10.12
2023-02-14T14:46:28.266Z,10.14
2023-02-14T14:48:57.606Z,10.15
2023-02-14T14:51:33.765Z,10.20
2023-02-14T14:54:13.900Z,10.23
2023-02-14T14:56:57.304Z,10.30
2023-02-14T14:59:29.790Z,10.39
2023-02-14T15:01:58.387Z,10.39
2023-02-14T15:04:37.275Z,10.43
2023-02-14T15:07:37.896Z,10.48
2023-02-14T15:10:30.428Z,10.50
2023-02-14T15:13:17.975Z,10.48
2023-02-14T15:15:51.784Z,10.52
2023-02-14T15:18:21.617Z,10.56
2023-02-14T15:20:51.633Z,10.56
2023-02-14T15:23:24.144Z,10.61
2023-02-14T15:25:52.804Z,10.59
2023-02-14T15:28:33.888Z,10.60
2023-02-14T15:31:06.180Z,10.64
2023-02-14T15:33:35.712Z,10.69
2023-02-14T15:36:15.580Z,10.72
2023-02-14T15:38:43.729Z,10.67
2023-02-14T15:41:14.692Z,10.70
2023-02-14T15:43:43.290Z,10.72
2023-02-14T15:46:33.216Z,10.71
2023-02-14T15:49:10.178Z,10.72
2023-02-14T15:51:39.584Z,10.77
2023-02-14T15:54:48.835Z,10.79
2023-02-14T15:57:28.075Z,10.80
2023-02-14T15:59:56.065Z,10.83
2023-02-14T16:02:42.136Z,10.90
2023-02-14T16:05:24.466Z,10.94
2023-02-14T16:08:33.151Z,10.89
2023-02-14T16:11:13.516Z,10.75
2023-02-14T16:13:45.079Z,10.65
2023-02-14T16:16:15.635Z,10.56
2023-02-14T16:18:48.224Z,10.56
2023-02-14T16:21:24.185Z,10.52
2023-02-14T16:24:07.351Z,10.44
2023-02-14T16:26:41.140Z,10.32
2023-02-14T16:29:16.197Z,10.19
2023-02-14T16:32:14.664Z,10.07
2023-02-14T16:34:44.479Z,9.90
2023-02-14T16:37:27.551Z,9.78
2023-02-14T16:39:57.838Z,9.70
2023-02-14T16:42:25.820Z,9.64
2023-02-14T16:44:55.278Z,9.63
2023-02-14T16:47:23.129Z,9.52
2023-02-14T16:49:53.158Z,9.36
2023-02-14T16:52:27.270Z,9.22
2023-02-14T16:54:55.268Z,9.06
2023-02-14T16:57:33.070Z,8.89
2023-02-14T17:00:01.155Z,8.80
2023-02-14T17:02:29.390Z,8.68
2023-02-14T17:04:57.345Z,8.59
2023-02-14T17:07:28.005Z,8.48
2023-02-14T17:10:02.608Z,8.36
2023-02-14T17:12:36.417Z,8.24
2023-02-14T17:15:13.158Z,8.14
2023-02-14T17:17:42.071Z,8.03
2023-02-14T17:20:10.713Z,7.90
2023-02-14T17:22:42.580Z,7.83
2023-02-14T17:25:11.222Z,7.81
2023-02-14T17:27:43.847Z,7.78
2023-02-14T17:30:14.551Z,7.65
2023-02-14T17:32:43.277Z,7.46
2023-02-14T17:35:12.076Z,7.29
2023-02-14T17:37:40.514Z,7.20
2023-02-14T17:40:09.929Z,7.09
2023-02-14T17:42:38.796Z,6.97
2023-02-14T17:45:11.680Z,6.88
2023-02-14T17:47:41.009Z,6.80
2023-02-14T17:50:09.765Z,6.71
2023-02-14T17:52:37.908Z,6.61
2023-02-14T17:55:07.170Z,6.56
2023-02-14T17:57:37.134Z,6.49
2023-02-14T18:00:11.666Z,6.47
2023-02-14T18:02:42.638Z,6.55
2023-02-14T18:05:12.299Z,6.49
2023-02-14T18:07:40.483Z,6.41
2023-02-14T18:10:09.024Z,6.37
2023-02-14T18:12:36.923Z,6.32
2023-02-14T18:15:05.970Z,6.20
2023-02-14T18:17:33.877Z,6.15
2023-02-14T18:20:01.821Z,6.05
2023-02-14T18:22:29.695Z,5.94
2023-02-14T18:24:58.834Z,5.86
2023-02-14T18:27:26.783Z,5.86
2023-02-14T18:29:54.634Z,5.84
2023-02-14T18:32:22.543Z,5.78
2023-02-14T18:34:51.284Z,5.72
2023-02-14T18:37:19.125Z,5.73
2023-02-14T18:39:46.945Z,5.67
2023-02-14T18:42:14.761Z,5.60
2023-02-14T18:44:42.643Z,5.48
2023-02-14T18:47:10.565Z,5.38
2023-02-14T18:49:39.627Z,5.26
2023-02-14T18:52:09.053Z,5.18
2023-02-14T18:54:47.857Z,5.22
2023-02-14T18:57:17.494Z,5.24
2023-02-14T18:59:45.615Z,5.14
2023-02-14T19:02:14.141Z,5.03
2023-02-14T19:04:42.262Z,4.95
2023-02-14T19:07:10.278Z,4.93
2023-02-14T19:09:40.192Z,4.94
2023-02-14T19:12:10.155Z,4.93
2023-02-14T19:14:38.355Z,4.94
2023-02-14T19:17:06.510Z,4.91
2023-02-14T19:19:34.833Z,4.88
2023-02-14T19:22:02.940Z,4.83
2023-02-14T19:24:31.150Z,4.76
2023-02-14T19:26:59.028Z,4.68
2023-02-14T19:29:27.100Z,4.65
2023-02-14T19:31:55.433Z,4.59
2023-02-14T19:34:30.526Z,4.53
2023-02-14T19:37:01.299Z,4.50
2023-02-14T19:39:31.515Z,4.53
2023-02-14T19:42:00.541Z,4.49
2023-02-14T19:44:30.134Z,4.42
2023-02-14T19:47:07.738Z,4.40
2023-02-14T19:49:43.720Z,4.46
2023-02-14T19:52:25.657Z,4.39
2023-02-14T19:54:55.885Z,4.36
2023-02-14T19:57:25.090Z,4.34
2023-02-14T19:59:52.892Z,4.31
2023-02-14T20:02:22.059Z,4.28
2023-02-14T20:04:50.071Z,4.20
2023-02-14T20:07:17.892Z,4.19
2023-02-14T20:09:45.731Z,4.18
2023-02-14T20:12:14.070Z,4.12
2023-02-14T20:14:50.923Z,4.05
2023-02-14T20:17:19.661Z,4.01
2023-02-14T20:19:49.588Z,3.93
2023-02-14T20:22:20.848Z,3.95
2023-02-14T20:24:49.370Z,3.96
2023-02-14T20:27:17.537Z,3.95
2023-02-14T20:29:45.539Z,3.98
2023-02-14T20:32:16.170Z,3.92
2023-02-14T20:34:45.219Z,3.85
2023-02-14T20:37:13.455Z,3.81
2023-02-14T20:39:41.472Z,3.80
2023-02-14T20:42:09.780Z,3.77
2023-02-14T20:44:37.796Z,3.69
2023-02-14T20:47:06.731Z,3.64
2023-02-14T20:49:35.818Z,3.66
2023-02-14T20:52:04.200Z,3.62
2023-02-14T20:54:32.155Z,3.53
2023-02-14T20:56:59.979Z,3.49
2023-02-14T20:59:28.913Z,3.45
2023-02-14T21:01:58.850Z,3.44
2023-02-14T21:04:28.723Z,3.50
2023-02-14T21:06:57.942Z,3.54
2023-02-14T21:09:26.045Z,3.56
2023-02-14T21:11:54.112Z,3.49
2023-02-14T21:14:22.301Z,3.48
2023-02-14T21:16:50.255Z,3.46
2023-02-14T21:19:18.454Z,3.41
2023-02-14T21:21:46.308Z,3.37
2023-02-14T21:24:16.156Z,3.34
2023-02-14T21:26:45.140Z,3.29
2023-02-14T21:29:13.039Z,3.29
2023-02-14T21:31:42.532Z,3.30
2023-02-14T21:34:11.050Z,3.19
2023-02-14T21:36:39.008Z,3.12
2023-02-14T21:39:07.878Z,3.04
2023-02-14T21:41:37.221Z,2.99
2023-02-14T21:44:06.592Z,2.96
2023-02-14T21:46:39.412Z,2.87
2023-02-14T21:49:25.858Z,2.82
2023-02-14T21:51:53.923Z,2.86
2023-02-14T21:54:21.990Z,2.83
2023-02-14T21:56:49.948Z,2.75
2023-02-14T21:59:17.914Z,2.69
2023-02-14T22:01:45.882Z,2.66
2023-02-14T22:04:13.811Z,2.63
2023-02-14T22:06:42.988Z,2.61
2023-02-14T22:09:14.214Z,2.54
2023-02-14T22:11:42.237Z,2.50
2023-02-14T22:14:10.271Z,2.43
2023-02-14T22:16:38.313Z,2.33
2023-02-14T22:19:10.933Z,2.25
2023-02-14T22:21:38.906Z,2.17
2023-02-14T22:24:07.040Z,2.18
2023-02-14T22:26:38.887Z,2.14
2023-02-14T22:29:11.324Z,2.14
2023-02-14T22:31:43.382Z,2.14
2023-02-14T22:34:17.722Z,2.09
2023-02-14T22:36:46.798Z,2.11
2023-02-14T22:39:16.780Z,2.13
2023-02-14T22:41:45.057Z,2.15
2023-02-14T22:44:13.774Z,2.08
2023-02-14T22:46:41.988Z,1.99
2023-02-14T22:49:10.455Z,1.98
2023-02-14T22:51:43.172Z,1.97
2023-02-14T22:54:15.114Z,1.91
2023-02-14T22:56:49.017Z,1.90
2023-02-14T22:59:21.291Z,1.89
2023-02-14T23:01:51.927Z,1.90
2023-02-14T23:04:22.672Z,1.85
2023-02-14T23:06:53.979Z,1.79
2023-02-14T23:09:24.121Z,1.76
2023-02-14T23:11:52.207Z,1.71
2023-02-14T23:14:38.936Z,1.67
2023-02-14T23:17:18.680Z,1.66
2023-02-14T23:20:06.013Z,1.69
2023-02-14T23:22:40.135Z,1.65
2023-02-14T23:25:11.832Z,1.61
2023-02-14T23:27:44.267Z,1.66
2023-02-14T23:30:19.289Z,1.62
2023-02-14T23:32:47.612Z,1.53
2023-02-14T23:35:16.078Z,1.57
2023-02-14T23:37:43.880Z,1.54
2023-02-14T23:40:12.196Z,1.47
2023-02-14T23:42:40.021Z,1.47
2023-02-14T23:45:26.840Z,1.41
2023-02-14T23:47:54.774Z,1.37
2023-02-14T23:50:22.600Z,1.36
2023-02-14T23:52:50.790Z,1.30
2023-02-14T23:55:18.632Z,1.23
2023-02-14T23:57:46.715Z,1.19
